sensor_id;sensor_type;location;lat;lon;timestamp;P1;durP1;ratioP1;P2;durP2;ratioP2
65831;SDS011;52593;42.648;23.332;2023-01-10T00:01:30;25.27;;;9.05;;
65831;SDS011;52593;42.648;23.332;2023-01-10T00:03:55;20.23;;;6.90;;
65831;SDS011;52593;42.648;23.332;2023-01-10T00:06:21;28.40;;;9.20;;
65831;SDS011;52593;42.648;23.332;2023-01-10T00:08:46;24.60;;;8.30;;
65831;SDS011;52593;42.648;23.332;2023-01-10T00:11:12;29.07;;;9.47;;
65831;SDS011;52593;42.648;23.332;2023-01-10T00:13:56;26.52;;;9.30;;
65831;SDS011;52593;42.648;23.332;2023-01-10T00:16:21;26.33;;;8.37;;
65831;SDS011;52593;42.648;23.332;2023-01-10T00:18:47;24.08;;;8.18;;
65831;SDS011;52593;42.648;23.332;2023-01-10T00:21:13;25.40;;;9.17;;
65831;SDS011;52593;42.648;23.332;2023-01-10T00:23:39;26.50;;;9.90;;
65831;SDS011;52593;42.648;23.332;2023-01-10T00:26:05;25.67;;;8.77;;
65831;SDS011;52593;42.648;23.332;2023-01-10T00:28:30;23.13;;;9.32;;
65831;SDS011;52593;42.648;23.332;2023-01-10T00:30:58;27.37;;;8.77;;
65831;SDS011;52593;42.648;23.332;2023-01-10T00:33:29;27.08;;;9.88;;
65831;SDS011;52593;42.648;23.332;2023-01-10T00:36:07;26.98;;;9.98;;
65831;SDS011;52593;42.648;23.332;2023-01-10T00:38:34;18.60;;;7.40;;
65831;SDS011;52593;42.648;23.332;2023-01-10T00:41:01;26.50;;;9.55;;
65831;SDS011;52593;42.648;23.332;2023-01-10T00:43:27;25.53;;;8.07;;
65831;SDS011;52593;42.648;23.332;2023-01-10T00:46:11;25.52;;;8.93;;
65831;SDS011;52593;42.648;23.332;2023-01-10T00:48:37;25.25;;;10.10;;
65831;SDS011;52593;42.648;23.332;2023-01-10T00:51:03;25.80;;;9.03;;
65831;SDS011;52593;42.648;23.332;2023-01-10T00:53:29;23.88;;;8.98;;
65831;SDS011;52593;42.648;23.332;2023-01-10T00:55:54;25.93;;;9.23;;
65831;SDS011;52593;42.648;23.332;2023-01-10T00:58:20;20.50;;;7.22;;
65831;SDS011;52593;42.648;23.332;2023-01-10T01:00:46;28.45;;;9.60;;
65831;SDS011;52593;42.648;23.332;2023-01-10T01:03:15;25.40;;;8.00;;
65831;SDS011;52593;42.648;23.332;2023-01-10T01:05:43;24.35;;;8.07;;
65831;SDS011;52593;42.648;23.332;2023-01-10T01:08:10;20.20;;;7.30;;
65831;SDS011;52593;42.648;23.332;2023-01-10T01:10:37;25.40;;;8.77;;
65831;SDS011;52593;42.648;23.332;2023-01-10T01:13:09;28.03;;;9.53;;
65831;SDS011;52593;42.648;23.332;2023-01-10T01:15:37;25.25;;;8.52;;
65831;SDS011;52593;42.648;23.332;2023-01-10T01:18:03;22.93;;;8.13;;
65831;SDS011;52593;42.648;23.332;2023-01-10T01:20:29;23.35;;;7.55;;
65831;SDS011;52593;42.648;23.332;2023-01-10T01:22:55;21.67;;;9.10;;
65831;SDS011;52593;42.648;23.332;2023-01-10T01:25:20;25.50;;;8.87;;
65831;SDS011;52593;42.648;23.332;2023-01-10T01:27:46;22.73;;;8.63;;
65831;SDS011;52593;42.648;23.332;2023-01-10T01:30:11;25.90;;;8.23;;
65831;SDS011;52593;42.648;23.332;2023-01-10T01:32:37;22.15;;;8.00;;
65831;SDS011;52593;42.648;23.332;2023-01-10T01:35:03;22.60;;;8.20;;
65831;SDS011;52593;42.648;23.332;2023-01-10T01:37:29;25.23;;;8.80;;
65831;SDS011;52593;42.648;23.332;2023-01-10T01:39:55;24.73;;;8.23;;
65831;SDS011;52593;42.648;23.332;2023-01-10T01:47:42;21.42;;;7.35;;
65831;SDS011;52593;42.648;23.332;2023-01-10T01:50:20;21.08;;;7.43;;
65831;SDS011;52593;42.648;23.332;2023-01-10T01:52:50;20.70;;;8.07;;
65831;SDS011;52593;42.648;23.332;2023-01-10T01:55:18;24.70;;;7.50;;
65831;SDS011;52593;42.648;23.332;2023-01-10T01:57:45;27.42;;;8.45;;
65831;SDS011;52593;42.648;23.332;2023-01-10T02:00:13;22.65;;;7.68;;
65831;SDS011;52593;42.648;23.332;2023-01-10T02:02:43;22.38;;;7.60;;
65831;SDS011;52593;42.648;23.332;2023-01-10T02:05:14;20.60;;;7.97;;
65831;SDS011;52593;42.648;23.332;2023-01-10T02:07:42;21.77;;;7.53;;
65831;SDS011;52593;42.648;23.332;2023-01-10T02:10:21;19.33;;;7.20;;
65831;SDS011;52593;42.648;23.332;2023-01-10T02:12:53;20.02;;;7.45;;
65831;SDS011;52593;42.648;23.332;2023-01-10T02:15:20;20.42;;;7.70;;
65831;SDS011;52593;42.648;23.332;2023-01-10T02:17:46;19.20;;;6.90;;
65831;SDS011;52593;42.648;23.332;2023-01-10T02:20:14;18.00;;;6.50;;
65831;SDS011;52593;42.648;23.332;2023-01-10T02:39:43;21.25;;;8.32;;
65831;SDS011;52593;42.648;23.332;2023-01-10T02:42:24;20.98;;;8.35;;
65831;SDS011;52593;42.648;23.332;2023-01-10T02:45:35;21.83;;;7.40;;
65831;SDS011;52593;42.648;23.332;2023-01-10T02:48:11;22.88;;;7.40;;
65831;SDS011;52593;42.648;23.332;2023-01-10T02:53:25;21.88;;;7.85;;
65831;SDS011;52593;42.648;23.332;2023-01-10T02:56:06;21.30;;;7.50;;
65831;SDS011;52593;42.648;23.332;2023-01-10T03:12:27;24.93;;;9.47;;
65831;SDS011;52593;42.648;23.332;2023-01-10T03:14:59;21.77;;;8.30;;
65831;SDS011;52593;42.648;23.332;2023-01-10T03:17:28;24.45;;;8.35;;
65831;SDS011;52593;42.648;23.332;2023-01-10T03:19:59;23.42;;;8.50;;
65831;SDS011;52593;42.648;23.332;2023-01-10T03:22:29;25.80;;;9.13;;
65831;SDS011;52593;42.648;23.332;2023-01-10T03:24:57;26.00;;;9.00;;
65831;SDS011;52593;42.648;23.332;2023-01-10T03:27:32;25.48;;;9.40;;
65831;SDS011;52593;42.648;23.332;2023-01-10T03:30:12;28.20;;;8.77;;
65831;SDS011;52593;42.648;23.332;2023-01-10T03:32:40;32.53;;;11.77;;
65831;SDS011;52593;42.648;23.332;2023-01-10T03:35:07;35.75;;;12.38;;
65831;SDS011;52593;42.648;23.332;2023-01-10T03:40:12;27.83;;;9.88;;
65831;SDS011;52593;42.648;23.332;2023-01-10T03:46:03;28.83;;;10.00;;
65831;SDS011;52593;42.648;23.332;2023-01-10T03:48:35;27.73;;;9.73;;
65831;SDS011;52593;42.648;23.332;2023-01-10T03:51:05;24.97;;;9.00;;
65831;SDS011;52593;42.648;23.332;2023-01-10T03:53:32;26.63;;;9.15;;
65831;SDS011;52593;42.648;23.332;2023-01-10T03:56:01;25.50;;;9.77;;
65831;SDS011;52593;42.648;23.332;2023-01-10T03:58:27;26.53;;;9.37;;
65831;SDS011;52593;42.648;23.332;2023-01-10T04:00:53;29.60;;;10.98;;
65831;SDS011;52593;42.648;23.332;2023-01-10T04:03:19;31.98;;;12.00;;
65831;SDS011;52593;42.648;23.332;2023-01-10T04:05:44;31.30;;;10.70;;
65831;SDS011;52593;42.648;23.332;2023-01-10T04:08:10;28.73;;;11.17;;
65831;SDS011;52593;42.648;23.332;2023-01-10T04:10:35;25.77;;;10.37;;
65831;SDS011;52593;42.648;23.332;2023-01-10T04:13:02;27.30;;;10.75;;
65831;SDS011;52593;42.648;23.332;2023-01-10T04:15:28;26.63;;;10.38;;
65831;SDS011;52593;42.648;23.332;2023-01-10T04:17:54;26.25;;;10.00;;
65831;SDS011;52593;42.648;23.332;2023-01-10T04:20:20;25.47;;;9.27;;
65831;SDS011;52593;42.648;23.332;2023-01-10T04:22:46;27.60;;;10.20;;
65831;SDS011;52593;42.648;23.332;2023-01-10T04:25:14;25.17;;;9.50;;
65831;SDS011;52593;42.648;23.332;2023-01-10T04:27:39;26.57;;;9.63;;
65831;SDS011;52593;42.648;23.332;2023-01-10T04:30:05;24.73;;;10.43;;
65831;SDS011;52593;42.648;23.332;2023-01-10T04:32:31;26.73;;;9.50;;
65831;SDS011;52593;42.648;23.332;2023-01-10T04:34:57;22.80;;;9.10;;
65831;SDS011;52593;42.648;23.332;2023-01-10T04:37:22;20.67;;;8.27;;
65831;SDS011;52593;42.648;23.332;2023-01-10T04:39:47;23.67;;;9.17;;
65831;SDS011;52593;42.648;23.332;2023-01-10T04:42:13;20.93;;;8.10;;
65831;SDS011;52593;42.648;23.332;2023-01-10T04:44:39;21.80;;;8.85;;
65831;SDS011;52593;42.648;23.332;2023-01-10T04:47:05;22.60;;;9.00;;
65831;SDS011;52593;42.648;23.332;2023-01-10T04:49:30;24.17;;;8.13;;
65831;SDS011;52593;42.648;23.332;2023-01-10T04:51:55;24.33;;;8.43;;
65831;SDS011;52593;42.648;23.332;2023-01-10T04:54:21;21.50;;;8.70;;
65831;SDS011;52593;42.648;23.332;2023-01-10T04:56:47;22.53;;;7.70;;
65831;SDS011;52593;42.648;23.332;2023-01-10T04:59:12;24.05;;;8.98;;
65831;SDS011;52593;42.648;23.332;2023-01-10T05:01:38;22.43;;;8.37;;
65831;SDS011;52593;42.648;23.332;2023-01-10T05:04:04;23.25;;;8.88;;
65831;SDS011;52593;42.648;23.332;2023-01-10T05:06:31;23.13;;;8.82;;
65831;SDS011;52593;42.648;23.332;2023-01-10T05:08:57;27.20;;;9.93;;
65831;SDS011;52593;42.648;23.332;2023-01-10T05:11:22;23.75;;;9.00;;
65831;SDS011;52593;42.648;23.332;2023-01-10T05:13:48;21.53;;;8.23;;
65831;SDS011;52593;42.648;23.332;2023-01-10T05:16:13;22.80;;;7.53;;
65831;SDS011;52593;42.648;23.332;2023-01-10T05:18:40;21.75;;;8.43;;
65831;SDS011;52593;42.648;23.332;2023-01-10T05:21:06;20.50;;;7.75;;
65831;SDS011;52593;42.648;23.332;2023-01-10T05:23:34;20.27;;;8.23;;
65831;SDS011;52593;42.648;23.332;2023-01-10T05:26:07;22.73;;;8.30;;
65831;SDS011;52593;42.648;23.332;2023-01-10T05:28:41;20.63;;;8.43;;
65831;SDS011;52593;42.648;23.332;2023-01-10T05:31:07;24.35;;;7.97;;
65831;SDS011;52593;42.648;23.332;2023-01-10T05:33:35;21.88;;;8.68;;
65831;SDS011;52593;42.648;23.332;2023-01-10T05:36:01;21.37;;;8.43;;
65831;SDS011;52593;42.648;23.332;2023-01-10T05:38:30;20.92;;;8.32;;
65831;SDS011;52593;42.648;23.332;2023-01-10T05:40:57;21.80;;;8.03;;
65831;SDS011;52593;42.648;23.332;2023-01-10T05:43:23;18.15;;;7.60;;
65831;SDS011;52593;42.648;23.332;2023-01-10T05:45:50;21.60;;;8.13;;
65831;SDS011;52593;42.648;23.332;2023-01-10T05:48:16;21.52;;;7.97;;
65831;SDS011;52593;42.648;23.332;2023-01-10T05:50:41;21.80;;;8.27;;
65831;SDS011;52593;42.648;23.332;2023-01-10T05:53:07;20.43;;;8.57;;
65831;SDS011;52593;42.648;23.332;2023-01-10T05:55:32;24.23;;;9.02;;
65831;SDS011;52593;42.648;23.332;2023-01-10T05:57:58;20.13;;;7.43;;
65831;SDS011;52593;42.648;23.332;2023-01-10T06:00:24;20.33;;;7.78;;
65831;SDS011;52593;42.648;23.332;2023-01-10T06:02:49;19.53;;;8.03;;
65831;SDS011;52593;42.648;23.332;2023-01-10T06:05:14;20.57;;;7.70;;
65831;SDS011;52593;42.648;23.332;2023-01-10T06:07:40;17.88;;;7.10;;
65831;SDS011;52593;42.648;23.332;2023-01-10T06:10:05;19.37;;;7.50;;
65831;SDS011;52593;42.648;23.332;2023-01-10T06:12:31;21.75;;;8.82;;
65831;SDS011;52593;42.648;23.332;2023-01-10T06:14:57;24.93;;;8.50;;
65831;SDS011;52593;42.648;23.332;2023-01-10T06:17:22;20.90;;;8.80;;
65831;SDS011;52593;42.648;23.332;2023-01-10T06:19:48;20.17;;;8.57;;
65831;SDS011;52593;42.648;23.332;2023-01-10T06:22:13;21.48;;;8.07;;
65831;SDS011;52593;42.648;23.332;2023-01-10T06:24:38;23.07;;;9.03;;
65831;SDS011;52593;42.648;23.332;2023-01-10T06:27:04;24.20;;;9.57;;
65831;SDS011;52593;42.648;23.332;2023-01-10T06:29:30;22.15;;;8.70;;
65831;SDS011;52593;42.648;23.332;2023-01-10T06:31:55;23.00;;;8.17;;
65831;SDS011;52593;42.648;23.332;2023-01-10T06:34:21;22.63;;;8.67;;
65831;SDS011;52593;42.648;23.332;2023-01-10T06:36:46;22.77;;;7.70;;
65831;SDS011;52593;42.648;23.332;2023-01-10T06:39:11;23.98;;;8.20;;
65831;SDS011;52593;42.648;23.332;2023-01-10T06:41:37;18.40;;;7.50;;
65831;SDS011;52593;42.648;23.332;2023-01-10T06:44:02;22.43;;;8.17;;
65831;SDS011;52593;42.648;23.332;2023-01-10T06:46:27;21.57;;;8.27;;
65831;SDS011;52593;42.648;23.332;2023-01-10T06:48:53;19.17;;;7.80;;
65831;SDS011;52593;42.648;23.332;2023-01-10T06:51:18;21.17;;;8.37;;
65831;SDS011;52593;42.648;23.332;2023-01-10T06:53:43;23.00;;;7.93;;
65831;SDS011;52593;42.648;23.332;2023-01-10T06:56:09;23.13;;;8.70;;
65831;SDS011;52593;42.648;23.332;2023-01-10T06:58:35;19.33;;;8.13;;
65831;SDS011;52593;42.648;23.332;2023-01-10T07:01:03;25.35;;;8.68;;
65831;SDS011;52593;42.648;23.332;2023-01-10T07:03:36;22.27;;;8.45;;
65831;SDS011;52593;42.648;23.332;2023-01-10T07:06:02;22.57;;;8.60;;
65831;SDS011;52593;42.648;23.332;2023-01-10T07:08:27;22.13;;;8.43;;
65831;SDS011;52593;42.648;23.332;2023-01-10T07:10:56;21.77;;;8.10;;
65831;SDS011;52593;42.648;23.332;2023-01-10T07:13:21;24.85;;;9.25;;
65831;SDS011;52593;42.648;23.332;2023-01-10T07:15:47;23.93;;;8.27;;
65831;SDS011;52593;42.648;23.332;2023-01-10T07:18:12;25.20;;;8.60;;
65831;SDS011;52593;42.648;23.332;2023-01-10T07:20:38;26.63;;;9.27;;
65831;SDS011;52593;42.648;23.332;2023-01-10T07:23:03;23.95;;;9.15;;
65831;SDS011;52593;42.648;23.332;2023-01-10T07:25:29;23.93;;;9.70;;
65831;SDS011;52593;42.648;23.332;2023-01-10T07:27:54;24.63;;;9.50;;
65831;SDS011;52593;42.648;23.332;2023-01-10T07:30:20;24.63;;;9.85;;
65831;SDS011;52593;42.648;23.332;2023-01-10T07:32:51;26.03;;;9.57;;
65831;SDS011;52593;42.648;23.332;2023-01-10T07:35:18;23.90;;;8.93;;
65831;SDS011;52593;42.648;23.332;2023-01-10T07:37:43;23.17;;;8.40;;
65831;SDS011;52593;42.648;23.332;2023-01-10T07:40:09;21.03;;;8.40;;
65831;SDS011;52593;42.648;23.332;2023-01-10T07:42:35;22.73;;;8.43;;
65831;SDS011;52593;42.648;23.332;2023-01-10T07:45:00;22.13;;;8.97;;
65831;SDS011;52593;42.648;23.332;2023-01-10T07:47:25;21.58;;;8.40;;
65831;SDS011;52593;42.648;23.332;2023-01-10T07:49:52;25.03;;;8.63;;
65831;SDS011;52593;42.648;23.332;2023-01-10T07:52:17;22.60;;;8.67;;
65831;SDS011;52593;42.648;23.332;2023-01-10T07:54:43;21.83;;;8.67;;
65831;SDS011;52593;42.648;23.332;2023-01-10T07:57:08;25.17;;;8.50;;
65831;SDS011;52593;42.648;23.332;2023-01-10T07:59:34;21.87;;;8.57;;
65831;SDS011;52593;42.648;23.332;2023-01-10T08:01:59;22.37;;;8.83;;
65831;SDS011;52593;42.648;23.332;2023-01-10T08:04:24;23.77;;;8.73;;
65831;SDS011;52593;42.648;23.332;2023-01-10T08:06:50;21.85;;;8.50;;
65831;SDS011;52593;42.648;23.332;2023-01-10T08:09:18;22.67;;;7.10;;
65831;SDS011;52593;42.648;23.332;2023-01-10T08:11:43;20.45;;;7.90;;
65831;SDS011;52593;42.648;23.332;2023-01-10T08:14:09;20.57;;;8.13;;
65831;SDS011;52593;42.648;23.332;2023-01-10T08:16:34;20.87;;;7.53;;
65831;SDS011;52593;42.648;23.332;2023-01-10T08:18:59;22.17;;;8.07;;
65831;SDS011;52593;42.648;23.332;2023-01-10T08:21:25;20.10;;;8.57;;
65831;SDS011;52593;42.648;23.332;2023-01-10T08:23:50;21.23;;;8.32;;
65831;SDS011;52593;42.648;23.332;2023-01-10T08:26:16;23.40;;;9.63;;
65831;SDS011;52593;42.648;23.332;2023-01-10T08:28:42;19.85;;;8.82;;
65831;SDS011;52593;42.648;23.332;2023-01-10T08:31:08;32.47;;;14.53;;
65831;SDS011;52593;42.648;23.332;2023-01-10T08:33:36;25.73;;;10.68;;
65831;SDS011;52593;42.648;23.332;2023-01-10T08:36:02;23.17;;;9.03;;
65831;SDS011;52593;42.648;23.332;2023-01-10T08:38:28;22.17;;;8.43;;
65831;SDS011;52593;42.648;23.332;2023-01-10T08:40:55;21.40;;;7.63;;
65831;SDS011;52593;42.648;23.332;2023-01-10T08:43:21;19.63;;;8.85;;
65831;SDS011;52593;42.648;23.332;2023-01-10T08:45:47;22.97;;;8.87;;
65831;SDS011;52593;42.648;23.332;2023-01-10T08:48:13;19.08;;;8.73;;
65831;SDS011;52593;42.648;23.332;2023-01-10T08:50:39;21.25;;;7.90;;
65831;SDS011;52593;42.648;23.332;2023-01-10T08:53:04;20.17;;;8.03;;
65831;SDS011;52593;42.648;23.332;2023-01-10T08:55:30;18.73;;;7.87;;
65831;SDS011;52593;42.648;23.332;2023-01-10T08:57:58;27.42;;;10.63;;
65831;SDS011;52593;42.648;23.332;2023-01-10T09:00:24;26.83;;;10.65;;
65831;SDS011;52593;42.648;23.332;2023-01-10T09:02:50;24.97;;;10.40;;
65831;SDS011;52593;42.648;23.332;2023-01-10T09:05:15;23.60;;;9.87;;
65831;SDS011;52593;42.648;23.332;2023-01-10T09:07:41;26.20;;;10.10;;
65831;SDS011;52593;42.648;23.332;2023-01-10T09:10:06;28.63;;;10.95;;
65831;SDS011;52593;42.648;23.332;2023-01-10T09:12:33;24.97;;;10.40;;
65831;SDS011;52593;42.648;23.332;2023-01-10T09:15:17;26.48;;;10.65;;
65831;SDS011;52593;42.648;23.332;2023-01-10T09:17:43;30.43;;;9.80;;
65831;SDS011;52593;42.648;23.332;2023-01-10T09:20:08;27.23;;;10.73;;
65831;SDS011;52593;42.648;23.332;2023-01-10T09:22:37;27.40;;;10.37;;
65831;SDS011;52593;42.648;23.332;2023-01-10T09:25:03;31.87;;;11.47;;
65831;SDS011;52593;42.648;23.332;2023-01-10T09:27:30;29.63;;;12.23;;
65831;SDS011;52593;42.648;23.332;2023-01-10T09:29:56;32.00;;;12.75;;
65831;SDS011;52593;42.648;23.332;2023-01-10T09:32:21;31.00;;;11.17;;
65831;SDS011;52593;42.648;23.332;2023-01-10T09:34:46;31.37;;;13.87;;
65831;SDS011;52593;42.648;23.332;2023-01-10T09:37:12;44.00;;;17.67;;
65831;SDS011;52593;42.648;23.332;2023-01-10T09:39:37;45.20;;;16.90;;
65831;SDS011;52593;42.648;23.332;2023-01-10T09:50:27;40.70;;;14.65;;
65831;SDS011;52593;42.648;23.332;2023-01-10T09:53:14;42.63;;;17.00;;
65831;SDS011;52593;42.648;23.332;2023-01-10T09:55:52;46.42;;;17.30;;
65831;SDS011;52593;42.648;23.332;2023-01-10T09:58:21;42.03;;;16.20;;
65831;SDS011;52593;42.648;23.332;2023-01-10T10:00:55;36.17;;;14.43;;
65831;SDS011;52593;42.648;23.332;2023-01-10T10:03:29;31.45;;;12.90;;
65831;SDS011;52593;42.648;23.332;2023-01-10T10:05:56;40.08;;;15.30;;
65831;SDS011;52593;42.648;23.332;2023-01-10T10:08:22;38.15;;;14.35;;
65831;SDS011;52593;42.648;23.332;2023-01-10T10:11:05;37.23;;;13.83;;
65831;SDS011;52593;42.648;23.332;2023-01-10T10:30:15;43.40;;;15.20;;
65831;SDS011;52593;42.648;23.332;2023-01-10T10:35:48;36.73;;;15.40;;
65831;SDS011;52593;42.648;23.332;2023-01-10T10:38:24;44.08;;;15.85;;
65831;SDS011;52593;42.648;23.332;2023-01-10T10:40:54;42.40;;;16.33;;
65831;SDS011;52593;42.648;23.332;2023-01-10T10:43:22;38.05;;;15.43;;
65831;SDS011;52593;42.648;23.332;2023-01-10T10:46:02;41.60;;;17.10;;
65831;SDS011;52593;42.648;23.332;2023-01-10T10:48:33;41.50;;;14.47;;
65831;SDS011;52593;42.648;23.332;2023-01-10T10:53:30;37.33;;;16.30;;
65831;SDS011;52593;42.648;23.332;2023-01-10T10:55:57;41.47;;;15.87;;
65831;SDS011;52593;42.648;23.332;2023-01-10T10:58:24;47.38;;;16.70;;
65831;SDS011;52593;42.648;23.332;2023-01-10T11:00:50;41.30;;;16.45;;
65831;SDS011;52593;42.648;23.332;2023-01-10T11:05:47;37.07;;;14.90;;
65831;SDS011;52593;42.648;23.332;2023-01-10T11:08:13;40.80;;;15.82;;
65831;SDS011;52593;42.648;23.332;2023-01-10T11:10:54;34.33;;;12.80;;
65831;SDS011;52593;42.648;23.332;2023-01-10T11:15:59;42.13;;;16.10;;
65831;SDS011;52593;42.648;23.332;2023-01-10T11:18:27;45.65;;;17.25;;
65831;SDS011;52593;42.648;23.332;2023-01-10T11:26:10;36.92;;;14.38;;
65831;SDS011;52593;42.648;23.332;2023-01-10T11:29:02;31.37;;;12.93;;
65831;SDS011;52593;42.648;23.332;2023-01-10T11:31:41;36.83;;;14.48;;
65831;SDS011;52593;42.648;23.332;2023-01-10T11:34:28;38.70;;;13.20;;
65831;SDS011;52593;42.648;23.332;2023-01-10T11:39:28;30.20;;;10.50;;
65831;SDS011;52593;42.648;23.332;2023-01-10T11:41:55;41.20;;;14.63;;
65831;SDS011;52593;42.648;23.332;2023-01-10T11:46:49;32.70;;;12.50;;
65831;SDS011;52593;42.648;23.332;2023-01-10T11:49:27;46.35;;;14.93;;
65831;SDS011;52593;42.648;23.332;2023-01-10T11:52:33;38.70;;;14.52;;
65831;SDS011;52593;42.648;23.332;2023-01-10T11:54:54;40.47;;;14.50;;
65831;SDS011;52593;42.648;23.332;2023-01-10T11:57:24;32.83;;;11.52;;
65831;SDS011;52593;42.648;23.332;2023-01-10T11:59:53;31.77;;;12.03;;
65831;SDS011;52593;42.648;23.332;2023-01-10T12:04:59;22.80;;;9.18;;
65831;SDS011;52593;42.648;23.332;2023-01-10T12:07:28;30.05;;;11.70;;
65831;SDS011;52593;42.648;23.332;2023-01-10T12:12:32;28.73;;;11.52;;
65831;SDS011;52593;42.648;23.332;2023-01-10T12:15:20;30.25;;;10.80;;
65831;SDS011;52593;42.648;23.332;2023-01-10T12:17:45;30.73;;;11.97;;
65831;SDS011;52593;42.648;23.332;2023-01-10T12:20:14;41.35;;;15.45;;
65831;SDS011;52593;42.648;23.332;2023-01-10T12:22:46;34.80;;;13.50;;
65831;SDS011;52593;42.648;23.332;2023-01-10T12:25:18;36.15;;;14.52;;
65831;SDS011;52593;42.648;23.332;2023-01-10T12:27:46;35.93;;;14.47;;
65831;SDS011;52593;42.648;23.332;2023-01-10T12:30:28;34.53;;;13.25;;
65831;SDS011;52593;42.648;23.332;2023-01-10T12:32:58;42.22;;;14.23;;
65831;SDS011;52593;42.648;23.332;2023-01-10T12:38:08;31.33;;;12.30;;
65831;SDS011;52593;42.648;23.332;2023-01-10T12:41:11;27.33;;;11.47;;
65831;SDS011;52593;42.648;23.332;2023-01-10T12:44:02;30.58;;;10.63;;
65831;SDS011;52593;42.648;23.332;2023-01-10T12:46:45;25.85;;;10.00;;
65831;SDS011;52593;42.648;23.332;2023-01-10T12:49:22;30.70;;;12.45;;
65831;SDS011;52593;42.648;23.332;2023-01-10T12:51:51;27.65;;;9.95;;
65831;SDS011;52593;42.648;23.332;2023-01-10T12:54:21;33.77;;;12.77;;
65831;SDS011;52593;42.648;23.332;2023-01-10T12:56:50;27.52;;;11.68;;
65831;SDS011;52593;42.648;23.332;2023-01-10T12:59:19;27.55;;;11.32;;
65831;SDS011;52593;42.648;23.332;2023-01-10T13:01:53;28.83;;;11.57;;
65831;SDS011;52593;42.648;23.332;2023-01-10T13:04:21;29.05;;;11.23;;
65831;SDS011;52593;42.648;23.332;2023-01-10T13:06:48;28.00;;;10.83;;
65831;SDS011;52593;42.648;23.332;2023-01-10T13:09:20;26.48;;;10.88;;
65831;SDS011;52593;42.648;23.332;2023-01-10T13:14:37;28.80;;;11.50;;
65831;SDS011;52593;42.648;23.332;2023-01-10T13:17:22;27.38;;;10.75;;
65831;SDS011;52593;42.648;23.332;2023-01-10T13:23:08;27.00;;;11.25;;
65831;SDS011;52593;42.648;23.332;2023-01-10T13:25:38;28.23;;;11.73;;
65831;SDS011;52593;42.648;23.332;2023-01-10T13:28:05;27.57;;;10.97;;
65831;SDS011;52593;42.648;23.332;2023-01-10T13:30:39;29.48;;;11.25;;
65831;SDS011;52593;42.648;23.332;2023-01-10T13:33:06;28.95;;;11.93;;
65831;SDS011;52593;42.648;23.332;2023-01-10T13:35:43;27.33;;;10.60;;
65831;SDS011;52593;42.648;23.332;2023-01-10T13:38:16;27.63;;;11.33;;
65831;SDS011;52593;42.648;23.332;2023-01-10T13:40:53;23.83;;;10.48;;
65831;SDS011;52593;42.648;23.332;2023-01-10T13:46:42;22.23;;;9.50;;
65831;SDS011;52593;42.648;23.332;2023-01-10T13:51:35;24.27;;;9.30;;
65831;SDS011;52593;42.648;23.332;2023-01-10T13:54:23;20.77;;;9.80;;
65831;SDS011;52593;42.648;23.332;2023-01-10T13:56:50;19.73;;;8.23;;
65831;SDS011;52593;42.648;23.332;2023-01-10T14:02:25;12.55;;;6.10;;
65831;SDS011;52593;42.648;23.332;2023-01-10T14:04:53;17.23;;;7.55;;
65831;SDS011;52593;42.648;23.332;2023-01-10T14:07:40;17.42;;;7.28;;
65831;SDS011;52593;42.648;23.332;2023-01-10T14:10:16;18.92;;;8.45;;
65831;SDS011;52593;42.648;23.332;2023-01-10T14:12:55;18.60;;;8.80;;
65831;SDS011;52593;42.648;23.332;2023-01-10T14:17:57;17.83;;;7.72;;
65831;SDS011;52593;42.648;23.332;2023-01-10T14:20:27;20.38;;;8.60;;
65831;SDS011;52593;42.648;23.332;2023-01-10T14:23:03;16.25;;;6.38;;
65831;SDS011;52593;42.648;23.332;2023-01-10T14:25:32;15.33;;;5.87;;
65831;SDS011;52593;42.648;23.332;2023-01-10T14:28:00;14.38;;;6.25;;
65831;SDS011;52593;42.648;23.332;2023-01-10T14:30:34;17.17;;;6.70;;
65831;SDS011;52593;42.648;23.332;2023-01-10T14:33:15;16.25;;;7.35;;
65831;SDS011;52593;42.648;23.332;2023-01-10T14:35:46;18.38;;;7.75;;
65831;SDS011;52593;42.648;23.332;2023-01-10T14:38:17;15.90;;;7.27;;
65831;SDS011;52593;42.648;23.332;2023-01-10T14:40:49;15.80;;;6.85;;
65831;SDS011;52593;42.648;23.332;2023-01-10T14:43:18;15.52;;;6.65;;
65831;SDS011;52593;42.648;23.332;2023-01-10T14:45:53;12.02;;;4.82;;
65831;SDS011;52593;42.648;23.332;2023-01-10T14:51:12;9.70;;;3.80;;
65831;SDS011;52593;42.648;23.332;2023-01-10T14:53:46;12.13;;;4.65;;
65831;SDS011;52593;42.648;23.332;2023-01-10T14:56:21;6.68;;;2.45;;
65831;SDS011;52593;42.648;23.332;2023-01-10T14:58:52;6.97;;;2.97;;
65831;SDS011;52593;42.648;23.332;2023-01-10T15:01:20;7.00;;;2.83;;
65831;SDS011;52593;42.648;23.332;2023-01-10T15:03:48;8.35;;;3.13;;
65831;SDS011;52593;42.648;23.332;2023-01-10T15:06:14;9.40;;;3.47;;
65831;SDS011;52593;42.648;23.332;2023-01-10T15:08:40;9.23;;;3.63;;
65831;SDS011;52593;42.648;23.332;2023-01-10T15:11:06;10.03;;;3.07;;
65831;SDS011;52593;42.648;23.332;2023-01-10T15:13:49;4.30;;;1.60;;
65831;SDS011;52593;42.648;23.332;2023-01-10T15:16:20;4.95;;;1.80;;
65831;SDS011;52593;42.648;23.332;2023-01-10T15:18:47;6.03;;;1.77;;
65831;SDS011;52593;42.648;23.332;2023-01-10T15:21:14;5.57;;;1.85;;
65831;SDS011;52593;42.648;23.332;2023-01-10T15:23:41;4.93;;;1.43;;
65831;SDS011;52593;42.648;23.332;2023-01-10T15:31:46;5.80;;;1.55;;
65831;SDS011;52593;42.648;23.332;2023-01-10T15:34:16;2.60;;;0.77;;
65831;SDS011;52593;42.648;23.332;2023-01-10T15:36:47;4.00;;;1.10;;
65831;SDS011;52593;42.648;23.332;2023-01-10T15:39:22;4.10;;;1.05;;
65831;SDS011;52593;42.648;23.332;2023-01-10T15:41:54;4.30;;;1.25;;
65831;SDS011;52593;42.648;23.332;2023-01-10T15:44:42;3.97;;;1.20;;
65831;SDS011;52593;42.648;23.332;2023-01-10T15:49:53;3.25;;;1.00;;
65831;SDS011;52593;42.648;23.332;2023-01-10T15:52:21;3.20;;;0.93;;
65831;SDS011;52593;42.648;23.332;2023-01-10T15:54:47;4.45;;;1.38;;
65831;SDS011;52593;42.648;23.332;2023-01-10T15:57:18;5.10;;;1.60;;
65831;SDS011;52593;42.648;23.332;2023-01-10T15:59:46;7.57;;;1.75;;
65831;SDS011;52593;42.648;23.332;2023-01-10T16:02:24;6.07;;;1.70;;
65831;SDS011;52593;42.648;23.332;2023-01-10T16:04:58;3.73;;;1.30;;
65831;SDS011;52593;42.648;23.332;2023-01-10T16:07:41;4.78;;;1.80;;
65831;SDS011;52593;42.648;23.332;2023-01-10T16:10:16;4.75;;;1.30;;
65831;SDS011;52593;42.648;23.332;2023-01-10T16:12:48;3.90;;;1.23;;
65831;SDS011;52593;42.648;23.332;2023-01-10T16:15:33;4.70;;;1.33;;
65831;SDS011;52593;42.648;23.332;2023-01-10T16:18:00;3.63;;;1.30;;
65831;SDS011;52593;42.648;23.332;2023-01-10T16:20:30;4.90;;;1.77;;
65831;SDS011;52593;42.648;23.332;2023-01-10T16:22:59;5.45;;;1.85;;
65831;SDS011;52593;42.648;23.332;2023-01-10T16:25:33;5.18;;;1.90;;
65831;SDS011;52593;42.648;23.332;2023-01-10T16:28:00;5.15;;;2.08;;
65831;SDS011;52593;42.648;23.332;2023-01-10T16:30:33;5.07;;;1.60;;
65831;SDS011;52593;42.648;23.332;2023-01-10T16:33:01;4.35;;;1.30;;
65831;SDS011;52593;42.648;23.332;2023-01-10T16:35:56;2.55;;;0.60;;
65831;SDS011;52593;42.648;23.332;2023-01-10T16:38:24;3.35;;;0.95;;